sensor_id;sensor_type;location;lat;lon;timestamp;P1;durP1;ratioP1;P2;durP2;ratioP2
665;SDS011;315;48.738;9.126;2023-12-29T00:02:04;3.20;;;3.00;;
665;SDS011;315;48.738;9.126;2023-12-29T00:04:30;4.60;;;2.90;;
665;SDS011;315;48.738;9.126;2023-12-29T00:06:55;3.30;;;3.00;;
665;SDS011;315;48.738;9.126;2023-12-29T00:09:21;3.10;;;2.80;;
665;SDS011;315;48.738;9.126;2023-12-29T00:11:47;2.70;;;2.50;;
665;SDS011;315;48.738;9.126;2023-12-29T00:14:16;3.67;;;3.37;;
665;SDS011;315;48.738;9.126;2023-12-29T00:16:42;2.80;;;2.60;;
665;SDS011;315;48.738;9.126;2023-12-29T00:19:09;4.03;;;3.53;;
665;SDS011;315;48.738;9.126;2023-12-29T00:21:35;2.80;;;2.60;;
665;SDS011;315;48.738;9.126;2023-12-29T00:24:01;3.40;;;3.10;;
665;SDS011;315;48.738;9.126;2023-12-29T00:26:27;3.77;;;3.47;;
665;SDS011;315;48.738;9.126;2023-12-29T00:28:53;3.07;;;2.87;;
665;SDS011;315;48.738;9.126;2023-12-29T00:31:19;3.70;;;3.40;;
665;SDS011;315;48.738;9.126;2023-12-29T00:33:44;3.83;;;3.53;;
665;SDS011;315;48.738;9.126;2023-12-29T00:36:16;3.50;;;3.20;;
665;SDS011;315;48.738;9.126;2023-12-29T00:38:45;3.17;;;2.87;;
665;SDS011;315;48.738;9.126;2023-12-29T00:41:10;3.90;;;3.50;;
665;SDS011;315;48.738;9.126;2023-12-29T00:43:36;3.33;;;3.03;;
665;SDS011;315;48.738;9.126;2023-12-29T00:46:05;3.60;;;3.30;;
665;SDS011;315;48.738;9.126;2023-12-29T00:48:31;3.60;;;3.27;;
665;SDS011;315;48.738;9.126;2023-12-29T00:50:57;3.80;;;3.50;;
665;SDS011;315;48.738;9.126;2023-12-29T00:53:22;3.47;;;3.17;;
665;SDS011;315;48.738;9.126;2023-12-29T00:55:48;3.57;;;3.27;;
665;SDS011;315;48.738;9.126;2023-12-29T00:58:13;3.20;;;2.90;;
665;SDS011;315;48.738;9.126;2023-12-29T01:00:39;3.37;;;3.10;;
665;SDS011;315;48.738;9.126;2023-12-29T01:03:04;3.27;;;2.97;;
665;SDS011;315;48.738;9.126;2023-12-29T01:05:30;4.23;;;3.07;;
665;SDS011;315;48.738;9.126;2023-12-29T01:07:55;3.00;;;2.80;;
665;SDS011;315;48.738;9.126;2023-12-29T01:10:21;4.20;;;3.60;;
665;SDS011;315;48.738;9.126;2023-12-29T01:12:46;3.10;;;2.87;;
665;SDS011;315;48.738;9.126;2023-12-29T01:15:12;4.80;;;3.37;;
665;SDS011;315;48.738;9.126;2023-12-29T01:17:38;4.63;;;4.23;;
665;SDS011;315;48.738;9.126;2023-12-29T01:20:04;3.10;;;2.80;;
665;SDS011;315;48.738;9.126;2023-12-29T01:22:30;4.70;;;3.73;;
665;SDS011;315;48.738;9.126;2023-12-29T01:24:55;3.40;;;3.20;;
665;SDS011;315;48.738;9.126;2023-12-29T01:27:23;4.70;;;3.60;;
665;SDS011;315;48.738;9.126;2023-12-29T01:29:49;3.87;;;3.47;;
665;SDS011;315;48.738;9.126;2023-12-29T01:32:14;3.97;;;3.67;;
665;SDS011;315;48.738;9.126;2023-12-29T01:34:40;3.87;;;3.57;;
665;SDS011;315;48.738;9.126;2023-12-29T01:37:05;4.43;;;4.00;;
665;SDS011;315;48.738;9.126;2023-12-29T01:39:31;3.50;;;3.20;;
665;SDS011;315;48.738;9.126;2023-12-29T01:41:58;4.60;;;4.20;;
665;SDS011;315;48.738;9.126;2023-12-29T01:44:23;4.43;;;4.03;;
665;SDS011;315;48.738;9.126;2023-12-29T01:46:49;6.10;;;4.40;;
665;SDS011;315;48.738;9.126;2023-12-29T01:49:17;4.20;;;3.80;;
665;SDS011;315;48.738;9.126;2023-12-29T01:51:44;4.07;;;3.67;;
665;SDS011;315;48.738;9.126;2023-12-29T01:54:13;4.43;;;4.03;;
665;SDS011;315;48.738;9.126;2023-12-29T01:56:39;4.00;;;3.67;;
665;SDS011;315;48.738;9.126;2023-12-29T01:59:06;5.70;;;3.80;;
665;SDS011;315;48.738;9.126;2023-12-29T02:01:32;4.33;;;3.80;;
665;SDS011;315;48.738;9.126;2023-12-29T02:03:58;4.07;;;3.67;;
665;SDS011;315;48.738;9.126;2023-12-29T02:06:24;4.70;;;4.30;;
665;SDS011;315;48.738;9.126;2023-12-29T02:08:50;4.90;;;4.17;;
665;SDS011;315;48.738;9.126;2023-12-29T02:11:16;5.97;;;4.43;;
665;SDS011;315;48.738;9.126;2023-12-29T02:13:42;6.40;;;4.50;;
665;SDS011;315;48.738;9.126;2023-12-29T02:16:19;4.17;;;3.83;;
665;SDS011;315;48.738;9.126;2023-12-29T02:18:55;4.57;;;4.17;;
665;SDS011;315;48.738;9.126;2023-12-29T02:21:26;3.53;;;3.17;;
665;SDS011;315;48.738;9.126;2023-12-29T02:23:51;6.10;;;5.40;;
665;SDS011;315;48.738;9.126;2023-12-29T02:26:17;4.30;;;3.90;;
665;SDS011;315;48.738;9.126;2023-12-29T02:28:48;4.90;;;4.47;;
665;SDS011;315;48.738;9.126;2023-12-29T02:31:22;4.50;;;4.20;;
665;SDS011;315;48.738;9.126;2023-12-29T02:33:52;5.67;;;4.30;;
665;SDS011;315;48.738;9.126;2023-12-29T02:36:18;5.23;;;4.40;;
665;SDS011;315;48.738;9.126;2023-12-29T02:38:45;4.73;;;4.30;;
665;SDS011;315;48.738;9.126;2023-12-29T02:41:11;3.93;;;3.63;;
665;SDS011;315;48.738;9.126;2023-12-29T02:43:38;4.70;;;4.30;;
665;SDS011;315;48.738;9.126;2023-12-29T02:46:03;4.83;;;4.43;;
665;SDS011;315;48.738;9.126;2023-12-29T02:48:29;4.23;;;3.93;;
665;SDS011;315;48.738;9.126;2023-12-29T02:50:54;4.80;;;4.30;;
665;SDS011;315;48.738;9.126;2023-12-29T02:53:20;4.93;;;4.43;;
665;SDS011;315;48.738;9.126;2023-12-29T02:55:45;5.87;;;4.60;;
665;SDS011;315;48.738;9.126;2023-12-29T02:58:11;7.17;;;5.70;;
665;SDS011;315;48.738;9.126;2023-12-29T03:00:36;5.07;;;4.40;;
665;SDS011;315;48.738;9.126;2023-12-29T03:03:02;10.13;;;5.10;;
665;SDS011;315;48.738;9.126;2023-12-29T03:05:28;4.90;;;4.40;;
665;SDS011;315;48.738;9.126;2023-12-29T03:07:53;5.20;;;4.70;;
665;SDS011;315;48.738;9.126;2023-12-29T03:10:19;4.50;;;4.10;;
665;SDS011;315;48.738;9.126;2023-12-29T03:12:44;6.17;;;5.53;;
665;SDS011;315;48.738;9.126;2023-12-29T03:15:10;4.63;;;4.27;;
665;SDS011;315;48.738;9.126;2023-12-29T03:17:35;4.90;;;4.50;;
665;SDS011;315;48.738;9.126;2023-12-29T03:20:01;4.47;;;4.07;;
665;SDS011;315;48.738;9.126;2023-12-29T03:22:27;4.23;;;3.93;;
665;SDS011;315;48.738;9.126;2023-12-29T03:24:53;4.33;;;3.93;;
665;SDS011;315;48.738;9.126;2023-12-29T03:27:18;4.70;;;4.30;;
665;SDS011;315;48.738;9.126;2023-12-29T03:29:44;5.20;;;4.80;;
665;SDS011;315;48.738;9.126;2023-12-29T03:32:09;5.70;;;5.20;;
665;SDS011;315;48.738;9.126;2023-12-29T03:34:35;5.63;;;4.03;;
665;SDS011;315;48.738;9.126;2023-12-29T03:37:01;4.70;;;4.17;;
665;SDS011;315;48.738;9.126;2023-12-29T03:39:26;5.30;;;4.80;;
665;SDS011;315;48.738;9.126;2023-12-29T03:41:52;5.20;;;4.80;;
665;SDS011;315;48.738;9.126;2023-12-29T03:44:17;4.30;;;3.90;;
665;SDS011;315;48.738;9.126;2023-12-29T03:46:43;4.53;;;4.13;;
665;SDS011;315;48.738;9.126;2023-12-29T03:49:08;5.73;;;4.10;;
665;SDS011;315;48.738;9.126;2023-12-29T03:51:34;4.73;;;4.20;;
665;SDS011;315;48.738;9.126;2023-12-29T03:54:00;3.50;;;3.20;;
665;SDS011;315;48.738;9.126;2023-12-29T03:56:26;3.80;;;3.50;;
665;SDS011;315;48.738;9.126;2023-12-29T03:58:51;4.03;;;3.60;;
665;SDS011;315;48.738;9.126;2023-12-29T04:01:17;4.50;;;4.10;;
665;SDS011;315;48.738;9.126;2023-12-29T04:03:43;4.60;;;3.43;;
665;SDS011;315;48.738;9.126;2023-12-29T04:06:08;4.10;;;3.70;;
665;SDS011;315;48.738;9.126;2023-12-29T04:08:35;4.27;;;3.87;;
665;SDS011;315;48.738;9.126;2023-12-29T04:11:02;3.40;;;3.00;;
665;SDS011;315;48.738;9.126;2023-12-29T04:13:28;3.83;;;3.40;;
665;SDS011;315;48.738;9.126;2023-12-29T04:15:54;4.47;;;3.50;;
665;SDS011;315;48.738;9.126;2023-12-29T04:18:20;5.87;;;3.60;;
665;SDS011;315;48.738;9.126;2023-12-29T04:20:47;3.83;;;3.43;;
665;SDS011;315;48.738;9.126;2023-12-29T04:23:13;3.97;;;3.67;;
665;SDS011;315;48.738;9.126;2023-12-29T04:25:38;4.00;;;3.70;;
665;SDS011;315;48.738;9.126;2023-12-29T04:28:04;4.00;;;3.60;;
665;SDS011;315;48.738;9.126;2023-12-29T04:30:29;4.60;;;4.20;;
665;SDS011;315;48.738;9.126;2023-12-29T04:32:55;4.47;;;3.70;;
665;SDS011;315;48.738;9.126;2023-12-29T04:35:20;4.03;;;3.73;;
665;SDS011;315;48.738;9.126;2023-12-29T04:37:46;4.23;;;3.20;;
665;SDS011;315;48.738;9.126;2023-12-29T04:40:12;4.70;;;4.10;;
665;SDS011;315;48.738;9.126;2023-12-29T04:42:37;4.37;;;3.97;;
665;SDS011;315;48.738;9.126;2023-12-29T04:45:03;3.77;;;3.23;;
665;SDS011;315;48.738;9.126;2023-12-29T04:47:30;5.57;;;5.17;;
665;SDS011;315;48.738;9.126;2023-12-29T04:49:56;4.30;;;3.90;;
665;SDS011;315;48.738;9.126;2023-12-29T04:52:21;4.07;;;3.50;;
665;SDS011;315;48.738;9.126;2023-12-29T04:54:47;4.90;;;4.50;;
665;SDS011;315;48.738;9.126;2023-12-29T04:57:12;4.13;;;3.83;;
665;SDS011;315;48.738;9.126;2023-12-29T04:59:38;4.20;;;3.80;;
665;SDS011;315;48.738;9.126;2023-12-29T05:02:04;4.57;;;4.07;;
665;SDS011;315;48.738;9.126;2023-12-29T05:04:29;4.70;;;4.30;;
665;SDS011;315;48.738;9.126;2023-12-29T05:06:55;5.00;;;4.50;;
665;SDS011;315;48.738;9.126;2023-12-29T05:09:20;5.50;;;5.00;;
665;SDS011;315;48.738;9.126;2023-12-29T05:11:46;4.70;;;4.30;;
665;SDS011;315;48.738;9.126;2023-12-29T05:14:11;4.07;;;3.77;;
665;SDS011;315;48.738;9.126;2023-12-29T05:16:37;6.50;;;4.90;;
665;SDS011;315;48.738;9.126;2023-12-29T05:19:02;4.37;;;4.00;;
665;SDS011;315;48.738;9.126;2023-12-29T05:21:28;4.10;;;3.80;;
665;SDS011;315;48.738;9.126;2023-12-29T05:23:53;4.20;;;3.90;;
665;SDS011;315;48.738;9.126;2023-12-29T05:26:19;5.07;;;4.50;;
665;SDS011;315;48.738;9.126;2023-12-29T05:28:45;4.50;;;3.90;;
665;SDS011;315;48.738;9.126;2023-12-29T05:31:10;4.90;;;4.40;;
665;SDS011;315;48.738;9.126;2023-12-29T05:33:35;4.87;;;3.87;;
665;SDS011;315;48.738;9.126;2023-12-29T05:36:08;6.87;;;3.50;;
665;SDS011;315;48.738;9.126;2023-12-29T05:38:35;5.10;;;4.60;;
665;SDS011;315;48.738;9.126;2023-12-29T05:41:04;6.00;;;4.30;;
665;SDS011;315;48.738;9.126;2023-12-29T05:43:30;5.63;;;4.37;;
665;SDS011;315;48.738;9.126;2023-12-29T05:45:57;5.23;;;4.37;;
665;SDS011;315;48.738;9.126;2023-12-29T05:48:23;5.90;;;4.23;;
665;SDS011;315;48.738;9.126;2023-12-29T05:50:49;6.13;;;5.00;;
665;SDS011;315;48.738;9.126;2023-12-29T05:53:18;4.80;;;4.40;;
665;SDS011;315;48.738;9.126;2023-12-29T05:55:43;7.17;;;5.03;;
665;SDS011;315;48.738;9.126;2023-12-29T05:58:09;5.67;;;4.67;;
665;SDS011;315;48.738;9.126;2023-12-29T06:00:36;4.93;;;4.43;;
665;SDS011;315;48.738;9.126;2023-12-29T06:03:02;5.67;;;5.17;;
665;SDS011;315;48.738;9.126;2023-12-29T06:05:29;5.43;;;4.93;;
665;SDS011;315;48.738;9.126;2023-12-29T06:07:54;4.33;;;3.93;;
665;SDS011;315;48.738;9.126;2023-12-29T06:10:20;5.90;;;5.43;;
665;SDS011;315;48.738;9.126;2023-12-29T06:12:45;4.83;;;4.33;;
665;SDS011;315;48.738;9.126;2023-12-29T06:15:12;6.20;;;5.10;;
665;SDS011;315;48.738;9.126;2023-12-29T06:17:38;4.70;;;4.30;;
665;SDS011;315;48.738;9.126;2023-12-29T06:20:05;4.60;;;4.20;;
665;SDS011;315;48.738;9.126;2023-12-29T06:22:32;3.93;;;3.60;;
665;SDS011;315;48.738;9.126;2023-12-29T06:24:58;4.30;;;3.90;;
665;SDS011;315;48.738;9.126;2023-12-29T06:27:24;6.50;;;5.87;;
665;SDS011;315;48.738;9.126;2023-12-29T06:29:50;4.80;;;4.20;;
665;SDS011;315;48.738;9.126;2023-12-29T06:32:15;4.53;;;4.13;;
665;SDS011;315;48.738;9.126;2023-12-29T06:34:41;4.40;;;4.00;;
665;SDS011;315;48.738;9.126;2023-12-29T06:37:06;5.67;;;5.17;;
665;SDS011;315;48.738;9.126;2023-12-29T06:39:32;4.67;;;4.17;;
665;SDS011;315;48.738;9.126;2023-12-29T06:41:57;5.10;;;4.10;;
665;SDS011;315;48.738;9.126;2023-12-29T06:44:23;6.20;;;5.67;;
665;SDS011;315;48.738;9.126;2023-12-29T06:46:48;8.50;;;5.43;;
665;SDS011;315;48.738;9.126;2023-12-29T06:49:14;5.40;;;5.00;;
665;SDS011;315;48.738;9.126;2023-12-29T06:51:39;4.77;;;4.30;;
665;SDS011;315;48.738;9.126;2023-12-29T06:54:06;6.03;;;5.00;;
665;SDS011;315;48.738;9.126;2023-12-29T06:56:31;6.80;;;5.00;;
665;SDS011;315;48.738;9.126;2023-12-29T06:58:57;5.43;;;4.93;;
665;SDS011;315;48.738;9.126;2023-12-29T07:01:23;5.00;;;4.60;;
665;SDS011;315;48.738;9.126;2023-12-29T07:03:49;7.47;;;6.87;;
665;SDS011;315;48.738;9.126;2023-12-29T07:06:14;11.03;;;9.90;;
665;SDS011;315;48.738;9.126;2023-12-29T07:08:40;10.33;;;9.43;;
665;SDS011;315;48.738;9.126;2023-12-29T07:11:09;11.50;;;10.50;;
665;SDS011;315;48.738;9.126;2023-12-29T07:13:36;6.13;;;5.53;;
665;SDS011;315;48.738;9.126;2023-12-29T07:16:02;4.90;;;4.50;;
665;SDS011;315;48.738;9.126;2023-12-29T07:18:27;5.77;;;4.93;;
665;SDS011;315;48.738;9.126;2023-12-29T07:20:53;4.63;;;4.23;;
665;SDS011;315;48.738;9.126;2023-12-29T07:23:18;4.70;;;4.27;;
665;SDS011;315;48.738;9.126;2023-12-29T07:25:44;4.60;;;4.20;;
665;SDS011;315;48.738;9.126;2023-12-29T07:28:09;5.60;;;4.47;;
665;SDS011;315;48.738;9.126;2023-12-29T07:30:35;4.40;;;3.63;;
665;SDS011;315;48.738;9.126;2023-12-29T07:33:00;5.70;;;5.20;;
665;SDS011;315;48.738;9.126;2023-12-29T07:35:27;8.13;;;5.27;;
665;SDS011;315;48.738;9.126;2023-12-29T07:37:52;4.30;;;3.90;;
665;SDS011;315;48.738;9.126;2023-12-29T07:40:18;5.13;;;4.40;;
665;SDS011;315;48.738;9.126;2023-12-29T07:42:44;4.50;;;4.10;;
665;SDS011;315;48.738;9.126;2023-12-29T07:45:11;4.90;;;4.50;;
665;SDS011;315;48.738;9.126;2023-12-29T07:47:37;4.50;;;4.10;;
665;SDS011;315;48.738;9.126;2023-12-29T07:50:02;4.90;;;3.90;;
665;SDS011;315;48.738;9.126;2023-12-29T07:52:29;7.70;;;4.13;;
665;SDS011;315;48.738;9.126;2023-12-29T07:54:55;4.93;;;4.53;;
665;SDS011;315;48.738;9.126;2023-12-29T07:57:20;7.30;;;4.97;;
665;SDS011;315;48.738;9.126;2023-12-29T07:59:46;4.30;;;4.00;;
665;SDS011;315;48.738;9.126;2023-12-29T08:02:11;4.83;;;4.33;;
665;SDS011;315;48.738;9.126;2023-12-29T08:04:37;4.87;;;4.47;;
665;SDS011;315;48.738;9.126;2023-12-29T08:07:03;5.63;;;5.13;;
665;SDS011;315;48.738;9.126;2023-12-29T08:09:29;4.83;;;4.40;;
665;SDS011;315;48.738;9.126;2023-12-29T08:11:55;4.97;;;4.57;;
665;SDS011;315;48.738;9.126;2023-12-29T08:14:20;5.70;;;4.47;;
665;SDS011;315;48.738;9.126;2023-12-29T08:16:46;4.17;;;3.80;;
665;SDS011;315;48.738;9.126;2023-12-29T08:19:12;4.10;;;3.70;;
665;SDS011;315;48.738;9.126;2023-12-29T08:21:37;4.37;;;3.90;;
665;SDS011;315;48.738;9.126;2023-12-29T08:24:03;7.47;;;4.20;;
665;SDS011;315;48.738;9.126;2023-12-29T08:26:29;4.20;;;3.90;;
665;SDS011;315;48.738;9.126;2023-12-29T08:28:54;5.30;;;4.10;;
665;SDS011;315;48.738;9.126;2023-12-29T08:31:20;4.37;;;3.97;;
665;SDS011;315;48.738;9.126;2023-12-29T08:33:47;5.50;;;3.80;;
665;SDS011;315;48.738;9.126;2023-12-29T08:36:13;4.83;;;4.30;;
665;SDS011;315;48.738;9.126;2023-12-29T08:38:42;4.43;;;4.03;;
665;SDS011;315;48.738;9.126;2023-12-29T08:41:08;5.53;;;4.93;;
665;SDS011;315;48.738;9.126;2023-12-29T08:43:33;4.93;;;4.43;;
665;SDS011;315;48.738;9.126;2023-12-29T08:46:01;5.43;;;3.90;;
665;SDS011;315;48.738;9.126;2023-12-29T08:48:26;5.93;;;5.33;;
665;SDS011;315;48.738;9.126;2023-12-29T08:50:52;6.23;;;4.50;;
665;SDS011;315;48.738;9.126;2023-12-29T08:53:17;4.83;;;4.43;;
665;SDS011;315;48.738;9.126;2023-12-29T08:55:43;4.43;;;4.03;;
665;SDS011;315;48.738;9.126;2023-12-29T08:58:09;4.90;;;4.03;;
665;SDS011;315;48.738;9.126;2023-12-29T09:00:34;6.20;;;4.40;;
665;SDS011;315;48.738;9.126;2023-12-29T09:03:00;9.80;;;4.70;;
665;SDS011;315;48.738;9.126;2023-12-29T09:05:25;4.40;;;4.00;;
665;SDS011;315;48.738;9.126;2023-12-29T09:07:51;6.30;;;4.33;;
665;SDS011;315;48.738;9.126;2023-12-29T09:10:16;5.00;;;4.07;;
665;SDS011;315;48.738;9.126;2023-12-29T09:12:42;4.83;;;4.33;;
665;SDS011;315;48.738;9.126;2023-12-29T09:15:08;4.87;;;3.90;;
665;SDS011;315;48.738;9.126;2023-12-29T09:17:34;5.77;;;4.50;;
665;SDS011;315;48.738;9.126;2023-12-29T09:20:00;4.00;;;3.70;;
665;SDS011;315;48.738;9.126;2023-12-29T09:22:25;7.27;;;4.10;;
665;SDS011;315;48.738;9.126;2023-12-29T09:24:51;3.40;;;3.10;;
665;SDS011;315;48.738;9.126;2023-12-29T09:27:16;7.67;;;3.40;;
665;SDS011;315;48.738;9.126;2023-12-29T09:29:42;4.00;;;3.70;;
665;SDS011;315;48.738;9.126;2023-12-29T09:32:08;3.27;;;3.07;;
665;SDS011;315;48.738;9.126;2023-12-29T09:34:33;3.40;;;3.10;;
665;SDS011;315;48.738;9.126;2023-12-29T09:36:59;2.87;;;2.67;;
665;SDS011;315;48.738;9.126;2023-12-29T09:39:24;3.30;;;3.00;;
665;SDS011;315;48.738;9.126;2023-12-29T09:41:53;5.40;;;3.10;;
665;SDS011;315;48.738;9.126;2023-12-29T09:44:27;3.40;;;2.90;;
665;SDS011;315;48.738;9.126;2023-12-29T09:46:55;3.17;;;2.87;;
665;SDS011;315;48.738;9.126;2023-12-29T09:49:27;3.93;;;3.07;;
665;SDS011;315;48.738;9.126;2023-12-29T09:52:01;3.67;;;2.70;;
665;SDS011;315;48.738;9.126;2023-12-29T09:54:28;3.40;;;3.10;;
665;SDS011;315;48.738;9.126;2023-12-29T09:56:55;2.87;;;2.57;;
665;SDS011;315;48.738;9.126;2023-12-29T09:59:21;5.03;;;2.53;;
665;SDS011;315;48.738;9.126;2023-12-29T10:01:48;3.03;;;2.73;;
665;SDS011;315;48.738;9.126;2023-12-29T10:04:15;4.13;;;2.33;;
665;SDS011;315;48.738;9.126;2023-12-29T10:06:41;3.23;;;3.03;;
665;SDS011;315;48.738;9.126;2023-12-29T10:09:11;3.23;;;2.87;;
665;SDS011;315;48.738;9.126;2023-12-29T10:11:39;2.77;;;2.57;;
665;SDS011;315;48.738;9.126;2023-12-29T10:14:15;2.73;;;2.53;;
665;SDS011;315;48.738;9.126;2023-12-29T10:16:47;3.47;;;2.67;;
665;SDS011;315;48.738;9.126;2023-12-29T10:19:23;2.50;;;2.30;;
665;SDS011;315;48.738;9.126;2023-12-29T10:24:51;2.83;;;2.50;;
665;SDS011;315;48.738;9.126;2023-12-29T10:27:17;2.50;;;2.30;;
665;SDS011;315;48.738;9.126;2023-12-29T10:29:43;2.90;;;2.63;;
665;SDS011;315;48.738;9.126;2023-12-29T10:32:09;3.27;;;2.97;;
665;SDS011;315;48.738;9.126;2023-12-29T10:34:34;3.50;;;2.73;;
665;SDS011;315;48.738;9.126;2023-12-29T10:37:01;1.70;;;1.60;;
665;SDS011;315;48.738;9.126;2023-12-29T10:39:34;2.13;;;1.97;;
665;SDS011;315;48.738;9.126;2023-12-29T10:42:04;2.00;;;1.90;;
665;SDS011;315;48.738;9.126;2023-12-29T10:44:32;1.77;;;1.67;;
665;SDS011;315;48.738;9.126;2023-12-29T10:46:58;1.83;;;1.73;;
665;SDS011;315;48.738;9.126;2023-12-29T10:49:32;1.83;;;1.73;;
665;SDS011;315;48.738;9.126;2023-12-29T10:51:57;2.10;;;1.87;;
665;SDS011;315;48.738;9.126;2023-12-29T10:54:23;2.23;;;2.10;;
665;SDS011;315;48.738;9.126;2023-12-29T10:57:01;3.03;;;2.83;;
665;SDS011;315;48.738;9.126;2023-12-29T10:59:27;1.53;;;1.43;;
665;SDS011;315;48.738;9.126;2023-12-29T11:01:53;1.67;;;1.57;;
665;SDS011;315;48.738;9.126;2023-12-29T11:04:21;2.07;;;1.90;;
665;SDS011;315;48.738;9.126;2023-12-29T11:06:47;2.30;;;2.10;;
665;SDS011;315;48.738;9.126;2023-12-29T11:09:26;1.87;;;1.77;;
665;SDS011;315;48.738;9.126;2023-12-29T11:11:58;1.70;;;1.60;;
665;SDS011;315;48.738;9.126;2023-12-29T11:14:25;1.50;;;1.37;;
665;SDS011;315;48.738;9.126;2023-12-29T11:16:51;1.80;;;1.70;;
665;SDS011;315;48.738;9.126;2023-12-29T11:19:19;1.97;;;1.80;;
665;SDS011;315;48.738;9.126;2023-12-29T11:21:45;1.90;;;1.67;;
665;SDS011;315;48.738;9.126;2023-12-29T11:24:11;1.93;;;1.83;;
665;SDS011;315;48.738;9.126;2023-12-29T11:26:37;1.80;;;1.63;;
665;SDS011;315;48.738;9.126;2023-12-29T11:29:03;2.07;;;1.90;;
665;SDS011;315;48.738;9.126;2023-12-29T11:31:29;4.30;;;1.63;;
665;SDS011;315;48.738;9.126;2023-12-29T11:34:19;1.77;;;1.67;;
665;SDS011;315;48.738;9.126;2023-12-29T11:37:09;1.60;;;1.50;;
665;SDS011;315;48.738;9.126;2023-12-29T11:39:55;2.27;;;2.07;;
665;SDS011;315;48.738;9.126;2023-12-29T11:42:37;1.83;;;1.73;;
665;SDS011;315;48.738;9.126;2023-12-29T11:45:24;2.03;;;1.70;;
665;SDS011;315;48.738;9.126;2023-12-29T11:47:53;2.83;;;2.10;;
665;SDS011;315;48.738;9.126;2023-12-29T11:50:27;2.00;;;1.80;;
665;SDS011;315;48.738;9.126;2023-12-29T11:52:55;2.00;;;1.90;;
665;SDS011;315;48.738;9.126;2023-12-29T11:55:21;1.83;;;1.73;;
665;SDS011;315;48.738;9.126;2023-12-29T11:57:52;2.53;;;2.03;;
665;SDS011;315;48.738;9.126;2023-12-29T12:00:18;1.80;;;1.70;;
665;SDS011;315;48.738;9.126;2023-12-29T12:02:44;2.10;;;2.00;;
665;SDS011;315;48.738;9.126;2023-12-29T12:05:09;2.27;;;2.17;;
665;SDS011;315;48.738;9.126;2023-12-29T12:12:48;2.13;;;2.03;;
665;SDS011;315;48.738;9.126;2023-12-29T12:15:30;2.30;;;2.20;;
665;SDS011;315;48.738;9.126;2023-12-29T12:17:58;2.10;;;2.00;;
665;SDS011;315;48.738;9.126;2023-12-29T12:20:32;2.27;;;2.07;;
665;SDS011;315;48.738;9.126;2023-12-29T12:25:37;1.90;;;1.80;;
665;SDS011;315;48.738;9.126;2023-12-29T12:28:05;1.60;;;1.50;;
665;SDS011;315;48.738;9.126;2023-12-29T12:30:32;2.27;;;2.17;;
665;SDS011;315;48.738;9.126;2023-12-29T12:33:02;1.70;;;1.60;;
665;SDS011;315;48.738;9.126;2023-12-29T12:35:29;2.10;;;1.70;;
665;SDS011;315;48.738;9.126;2023-12-29T12:38:08;1.70;;;1.60;;
665;SDS011;315;48.738;9.126;2023-12-29T12:40:38;1.80;;;1.70;;
665;SDS011;315;48.738;9.126;2023-12-29T12:43:04;2.20;;;2.00;;
665;SDS011;315;48.738;9.126;2023-12-29T12:45:33;2.20;;;2.10;;
665;SDS011;315;48.738;9.126;2023-12-29T12:48:02;2.00;;;1.90;;
665;SDS011;315;48.738;9.126;2023-12-29T12:50:35;2.03;;;1.73;;
665;SDS011;315;48.738;9.126;2023-12-29T12:53:00;2.50;;;2.30;;
665;SDS011;315;48.738;9.126;2023-12-29T12:55:32;2.10;;;2.00;;
665;SDS011;315;48.738;9.126;2023-12-29T12:58:00;1.83;;;1.73;;
665;SDS011;315;48.738;9.126;2023-12-29T13:00:26;1.90;;;1.80;;
665;SDS011;315;48.738;9.126;2023-12-29T13:02:53;1.70;;;1.60;;
665;SDS011;315;48.738;9.126;2023-12-29T13:05:18;2.80;;;2.60;;
665;SDS011;315;48.738;9.126;2023-12-29T13:07:44;1.70;;;1.60;;
665;SDS011;315;48.738;9.126;2023-12-29T13:10:09;2.20;;;1.67;;
665;SDS011;315;48.738;9.126;2023-12-29T13:12:35;1.93;;;1.83;;
665;SDS011;315;48.738;9.126;2023-12-29T13:15:07;3.33;;;2.17;;
665;SDS011;315;48.738;9.126;2023-12-29T13:17:33;2.03;;;1.93;;
665;SDS011;315;48.738;9.126;2023-12-29T13:19:58;2.20;;;2.10;;
665;SDS011;315;48.738;9.126;2023-12-29T13:22:24;1.87;;;1.77;;
665;SDS011;315;48.738;9.126;2023-12-29T13:24:52;3.00;;;2.60;;
665;SDS011;315;48.738;9.126;2023-12-29T13:27:19;2.13;;;1.73;;
665;SDS011;315;48.738;9.126;2023-12-29T13:29:44;2.10;;;2.00;;
665;SDS011;315;48.738;9.126;2023-12-29T13:32:14;2.37;;;2.17;;
665;SDS011;315;48.738;9.126;2023-12-29T13:42:57;2.03;;;1.93;;
665;SDS011;315;48.738;9.126;2023-12-29T13:45:25;2.67;;;2.47;;
665;SDS011;315;48.738;9.126;2023-12-29T13:47:52;1.80;;;1.70;;
665;SDS011;315;48.738;9.126;2023-12-29T13:50:19;2.10;;;2.00;;
665;SDS011;315;48.738;9.126;2023-12-29T13:52:45;1.80;;;1.60;;
665;SDS011;315;48.738;9.126;2023-12-29T13:55:10;2.37;;;2.17;;
665;SDS011;315;48.738;9.126;2023-12-29T13:57:36;3.57;;;2.27;;
665;SDS011;315;48.738;9.126;2023-12-29T14:00:14;1.63;;;1.53;;
665;SDS011;315;48.738;9.126;2023-12-29T14:06:03;2.40;;;2.20;;
665;SDS011;315;48.738;9.126;2023-12-29T14:11:06;2.03;;;1.87;;
665;SDS011;315;48.738;9.126;2023-12-29T14:13:35;2.60;;;2.00;;
665;SDS011;315;48.738;9.126;2023-12-29T14:16:05;2.10;;;2.00;;
665;SDS011;315;48.738;9.126;2023-12-29T14:21:30;2.40;;;2.20;;
665;SDS011;315;48.738;9.126;2023-12-29T14:26:23;2.17;;;2.07;;
665;SDS011;315;48.738;9.126;2023-12-29T14:28:59;2.00;;;1.80;;
665;SDS011;315;48.738;9.126;2023-12-29T14:31:38;2.67;;;2.47;;
665;SDS011;315;48.738;9.126;2023-12-29T14:34:05;3.23;;;2.33;;
665;SDS011;315;48.738;9.126;2023-12-29T14:36:32;2.07;;;1.93;;
665;SDS011;315;48.738;9.126;2023-12-29T14:38:59;2.90;;;2.07;;
665;SDS011;315;48.738;9.126;2023-12-29T14:41:25;2.40;;;2.20;;
665;SDS011;315;48.738;9.126;2023-12-29T14:43:51;3.13;;;1.80;;
665;SDS011;315;48.738;9.126;2023-12-29T14:46:17;2.30;;;2.10;;
665;SDS011;315;48.738;9.126;2023-12-29T14:48:42;2.23;;;2.03;;
665;SDS011;315;48.738;9.126;2023-12-29T14:51:08;2.40;;;2.20;;
665;SDS011;315;48.738;9.126;2023-12-29T14:53:34;2.47;;;2.20;;
665;SDS011;315;48.738;9.126;2023-12-29T14:55:59;2.13;;;2.03;;
665;SDS011;315;48.738;9.126;2023-12-29T14:58:25;2.33;;;1.93;;
665;SDS011;315;48.738;9.126;2023-12-29T15:00:50;2.37;;;2.23;;
665;SDS011;315;48.738;9.126;2023-12-29T15:03:16;2.27;;;2.07;;
665;SDS011;315;48.738;9.126;2023-12-29T15:05:44;2.50;;;2.10;;
665;SDS011;315;48.738;9.126;2023-12-29T15:08:11;2.03;;;1.93;;
665;SDS011;315;48.738;9.126;2023-12-29T15:10:37;2.40;;;2.20;;
665;SDS011;315;48.738;9.126;2023-12-29T15:13:03;2.27;;;2.07;;
665;SDS011;315;48.738;9.126;2023-12-29T15:15:30;2.40;;;2.20;;
665;SDS011;315;48.738;9.126;2023-12-29T15:17:55;2.70;;;2.50;;
665;SDS011;315;48.738;9.126;2023-12-29T15:20:21;2.60;;;1.57;;
665;SDS011;315;48.738;9.126;2023-12-29T15:22:47;2.13;;;1.90;;
665;SDS011;315;48.738;9.126;2023-12-29T15:25:13;2.30;;;2.10;;
665;SDS011;315;48.738;9.126;2023-12-29T15:27:39;2.90;;;2.70;;
665;SDS011;315;48.738;9.126;2023-12-29T15:30:05;2.83;;;2.20;;
665;SDS011;315;48.738;9.126;2023-12-29T15:32:31;2.60;;;2.40;;
665;SDS011;315;48.738;9.126;2023-12-29T15:34:56;2.47;;;1.77;;
665;SDS011;315;48.738;9.126;2023-12-29T15:37:22;2.97;;;2.47;;
665;SDS011;315;48.738;9.126;2023-12-29T15:39:47;2.73;;;2.53;;
665;SDS011;315;48.738;9.126;2023-12-29T15:42:13;1.90;;;1.80;;
665;SDS011;315;48.738;9.126;2023-12-29T15:44:38;2.20;;;2.00;;
665;SDS011;315;48.738;9.126;2023-12-29T15:47:04;2.07;;;1.97;;
665;SDS011;315;48.738;9.126;2023-12-29T15:49:29;1.97;;;1.70;;
665;SDS011;315;48.738;9.126;2023-12-29T15:51:56;2.10;;;1.90;;
665;SDS011;315;48.738;9.126;2023-12-29T15:54:21;2.30;;;2.10;;
665;SDS011;315;48.738;9.126;2023-12-29T15:56:47;4.63;;;2.20;;
665;SDS011;315;48.738;9.126;2023-12-29T15:59:12;2.20;;;2.07;;
665;SDS011;315;48.738;9.126;2023-12-29T16:01:38;1.83;;;1.73;;
665;SDS011;315;48.738;9.126;2023-12-29T16:04:05;1.93;;;1.73;;
665;SDS011;315;48.738;9.126;2023-12-29T16:06:31;1.97;;;1.87;;
665;SDS011;315;48.738;9.126;2023-12-29T16:08:56;4.47;;;3.33;;
665;SDS011;315;48.738;9.126;2023-12-29T16:11:23;3.37;;;2.17;;
665;SDS011;315;48.738;9.126;2023-12-29T16:13:50;2.47;;;2.27;;